Time;durP1;ratioP1;P1;durP2;ratioP2;P2;SDS_P1;SDS_P2;PMS_P1;PMS_P2;Temp;Humidity;BMP_temperature;BMP_pressure;BME280_temperature;BME280_humidity;BME280_pressure;Samples;Min_cycle;Max_cycle;Signal;HPM_P1;HPM_P2
2022/04/26 03:36:43;;;;;;;68.10;35.97;;;9.40;99.90;;;;;;5091296;28;20266;-69
2022/04/26 03:39:09;;;;;;;75.63;37.07;;;9.40;99.90;;;;;;5105378;28;20180;-69
2022/04/26 03:41:35;;;;;;;78.50;39.67;;;9.30;99.90;;;;;;5111702;28;20257;-67
2022/04/26 03:44:01;;;;;;;79.40;38.90;;;9.30;99.90;;;;;;5105564;28;20664;-68
2022/04/26 03:46:26;;;;;;;71.20;38.37;;;9.30;99.90;;;;;;5111621;28;20642;-68
2022/04/26 03:48:52;;;;;;;83.60;41.07;;;9.30;99.90;;;;;;5100138;28;20170;-69
2022/04/26 03:51:18;;;;;;;86.67;41.07;;;9.30;99.90;;;;;;5091346;28;20166;-68
2022/04/26 03:53:46;;;;;;;82.03;40.63;;;9.20;99.90;;;;;;5100661;28;20204;-68
2022/04/26 03:56:12;;;;;;;84.70;41.50;;;9.30;99.90;;;;;;5111018;28;20245;-67
2022/04/26 03:58:37;;;;;;;83.57;41.40;;;9.20;99.90;;;;;;5109725;28;20180;-68
2022/04/26 04:01:04;;;;;;;85.63;42.07;;;9.20;99.90;;;;;;5108584;28;20200;-68
2022/04/26 04:03:30;;;;;;;85.50;40.23;;;9.10;99.90;;;;;;5110244;28;20270;-68
2022/04/26 04:05:55;;;;;;;82.93;41.77;;;9.20;99.90;;;;;;5102027;28;20219;-67
2022/04/26 04:08:21;;;;;;;89.50;43.10;;;9.20;99.90;;;;;;5089742;28;20264;-69
2022/04/26 04:10:46;;;;;;;87.53;43.70;;;9.20;99.90;;;;;;5090205;28;20178;-69
2022/04/26 04:13:13;;;;;;;86.63;41.13;;;9.20;99.90;;;;;;5089762;28;20545;-68
2022/04/26 04:15:39;;;;;;;85.10;42.47;;;9.10;99.90;;;;;;5094599;28;20197;-68
2022/04/26 04:19:17;;;;;;;91.90;44.57;;;9.20;99.90;;;;;;5109700;28;20188;-66
2022/04/26 04:20:50;;;;;;;101.70;46.00;;;9.20;99.90;;;;;;5105843;28;20209;-67
2022/04/26 04:23:15;;;;;;;85.47;41.67;;;9.20;99.90;;;;;;5089715;28;20178;-68
2022/04/26 04:25:41;;;;;;;92.30;43.70;;;9.20;99.90;;;;;;5093855;28;20276;-68
2022/04/26 04:28:07;;;;;;;91.80;41.80;;;9.20;99.90;;;;;;5112650;28;20214;-68
2022/04/26 04:30:32;;;;;;;89.10;41.10;;;9.20;99.90;;;;;;5112030;28;20573;-68
2022/04/26 04:32:58;;;;;;;97.60;44.57;;;9.20;99.90;;;;;;5094821;28;20592;-68
2022/04/26 04:35:23;;;;;;;90.63;43.63;;;9.20;99.90;;;;;;5093918;28;20205;-68
2022/04/26 04:37:49;;;;;;;96.50;45.70;;;9.20;99.90;;;;;;5093384;28;20174;-68
2022/04/26 04:40:15;;;;;;;94.10;46.00;;;9.20;99.90;;;;;;5094910;28;20237;-69
2022/04/26 04:42:40;;;;;;;104.23;46.40;;;9.10;99.90;;;;;;5113143;28;20173;-68
2022/04/26 04:45:06;;;;;;;105.10;46.50;;;9.10;99.90;;;;;;5113775;28;20233;-67
2022/04/26 04:47:32;;;;;;;105.07;48.03;;;9.20;99.90;;;;;;5093551;28;20187;-68
2022/04/26 04:49:57;;;;;;;101.80;47.97;;;9.20;99.90;;;;;;5094374;28;20182;-67
2022/04/26 04:52:23;;;;;;;95.27;47.57;;;9.10;99.90;;;;;;5110252;28;20618;-67
2022/04/26 04:54:49;;;;;;;110.20;46.73;;;9.10;99.90;;;;;;5092702;28;20181;-68
2022/04/26 04:57:14;;;;;;;111.00;47.07;;;9.20;99.90;;;;;;5109363;28;20201;-68
2022/04/26 04:59:40;;;;;;;104.43;48.03;;;9.20;99.90;;;;;;5113189;28;20695;-67
2022/04/26 05:02:05;;;;;;;101.77;44.13;;;9.10;99.90;;;;;;5102132;27;20201;-68
2022/04/26 05:04:31;;;;;;;90.50;44.43;;;9.10;99.90;;;;;;5134590;27;20208;-68
2022/04/26 05:06:56;;;;;;;101.53;43.10;;;9.00;99.90;;;;;;5122714;27;20197;-68
2022/04/26 05:09:22;;;;;;;93.30;41.27;;;9.00;99.90;;;;;;5112503;28;20176;-67
2022/04/26 05:11:48;;;;;;;88.17;42.50;;;9.00;99.90;;;;;;5105019;28;20192;-68
2022/04/26 05:14:14;;;;;;;91.43;41.40;;;9.00;99.90;;;;;;5093709;28;20173;-68
2022/04/26 05:16:39;;;;;;;87.10;40.70;;;9.00;99.90;;;;;;5099026;28;20244;-67
2022/04/26 05:19:05;;;;;;;79.13;39.30;;;8.90;99.90;;;;;;5114147;28;20176;-68
2022/04/26 05:21:30;;;;;;;80.97;38.53;;;8.80;99.90;;;;;;5109849;28;20205;-67
2022/04/26 05:26:40;;;;;;;82.53;39.57;;;8.80;99.90;;;;;;5108592;28;20226;-67
2022/04/26 05:29:06;;;;;;;91.43;41.67;;;8.80;99.90;;;;;;5134546;28;20176;-67
2022/04/26 05:31:32;;;;;;;91.43;43.83;;;8.80;99.90;;;;;;5124243;28;20174;-67
2022/04/26 05:33:58;;;;;;;96.50;43.83;;;8.90;99.90;;;;;;5106921;28;20174;-68
2022/04/26 05:36:23;;;;;;;108.13;44.93;;;8.90;99.90;;;;;;5099964;28;20257;-68
2022/04/26 05:38:49;;;;;;;107.60;47.73;;;8.90;99.90;;;;;;5115181;28;20169;-68
2022/04/26 05:41:14;;;;;;;127.10;48.27;;;8.90;99.90;;;;;;5107347;28;20292;-68
2022/04/26 05:43:40;;;;;;;108.33;48.60;;;8.90;99.90;;;;;;5094018;28;20186;-68
2022/04/26 05:46:11;;;;;;;110.60;47.43;;;9.00;99.90;;;;;;5096168;28;20226;-68
2022/04/26 05:48:36;;;;;;;110.83;48.77;;;9.00;99.90;;;;;;5114755;28;20185;-68
2022/04/26 05:51:03;;;;;;;103.67;44.47;;;9.00;99.90;;;;;;5112192;28;20638;-67
2022/04/26 05:53:29;;;;;;;111.67;47.83;;;8.90;99.90;;;;;;5093308;28;20173;-67
2022/04/26 05:55:54;;;;;;;88.50;42.50;;;8.90;99.90;;;;;;5107988;28;20594;-67
2022/04/26 05:58:20;;;;;;;100.47;44.27;;;8.80;99.90;;;;;;5112061;28;20204;-67
2022/04/26 06:00:46;;;;;;;96.70;43.13;;;8.90;99.90;;;;;;5099718;28;20201;-68
2022/04/26 06:03:11;;;;;;;102.03;46.33;;;8.80;99.90;;;;;;5092087;28;20174;-69
2022/04/26 06:05:37;;;;;;;98.30;43.80;;;8.80;99.90;;;;;;5103882;28;20670;-67
2022/04/26 06:08:03;;;;;;;91.17;44.53;;;8.80;99.90;;;;;;5113151;28;20247;-67
2022/04/26 06:10:28;;;;;;;99.57;42.20;;;8.80;99.90;;;;;;5102098;28;20190;-67
2022/04/26 06:12:54;;;;;;;91.77;43.13;;;8.80;99.90;;;;;;5092995;28;20188;-68
2022/04/26 06:15:21;;;;;;;85.23;39.23;;;8.80;99.90;;;;;;5095222;28;20177;-67
2022/04/26 06:17:46;;;;;;;91.77;41.10;;;8.90;99.90;;;;;;5092710;28;20169;-67
2022/04/26 06:20:12;;;;;;;88.40;40.97;;;8.70;99.90;;;;;;5096525;28;20212;-68
2022/04/26 06:22:38;;;;;;;82.00;41.53;;;8.70;99.90;;;;;;5113199;28;20579;-68
2022/04/26 06:25:04;;;;;;;82.23;39.03;;;8.80;99.90;;;;;;5108890;28;20238;-68
2022/04/26 06:27:30;;;;;;;73.27;35.67;;;8.80;99.90;;;;;;5092473;28;20260;-68
2022/04/26 06:29:56;;;;;;;69.17;36.30;;;8.80;99.90;;;;;;5110186;28;20256;-68
2022/04/26 06:32:21;;;;;;;71.87;36.20;;;8.80;99.90;;;;;;5110904;28;20172;-68
2022/04/26 06:34:47;;;;;;;67.93;35.60;;;8.70;99.90;;;;;;5112610;28;20208;-67
2022/04/26 06:37:15;;;;;;;77.20;36.90;;;8.80;99.90;;;;;;5108018;28;20722;-68
2022/04/26 06:39:41;;;;;;;74.17;36.53;;;8.80;99.90;;;;;;5091179;28;20181;-68
2022/04/26 06:42:07;;;;;;;87.07;40.07;;;8.80;99.90;;;;;;5095320;28;20205;-68
2022/04/26 06:44:33;;;;;;;72.47;38.83;;;8.80;99.90;;;;;;5112246;28;20591;-68
2022/04/26 06:46:58;;;;;;;85.07;38.10;;;8.70;99.90;;;;;;5111431;28;20200;-68
2022/04/26 06:49:24;;;;;;;81.00;38.67;;;8.70;99.90;;;;;;5106011;28;20179;-67
2022/04/26 06:51:49;;;;;;;93.70;40.00;;;8.70;99.90;;;;;;5112179;28;20229;-67
2022/04/26 06:54:15;;;;;;;89.67;36.97;;;8.70;99.90;;;;;;5092891;28;20211;-68
2022/04/26 06:56:41;;;;;;;79.73;34.83;;;8.70;99.90;;;;;;5099441;28;20200;-67
2022/04/26 06:59:06;;;;;;;67.83;35.10;;;8.80;99.90;;;;;;5111056;28;20642;-67
2022/04/26 07:01:32;;;;;;;87.87;35.03;;;8.80;99.90;;;;;;5092691;28;20220;-67
2022/04/26 07:03:58;;;;;;;79.90;37.77;;;8.90;99.90;;;;;;5093188;28;20560;-67
2022/04/26 07:06:23;;;;;;;87.57;38.07;;;9.00;99.90;;;;;;5090200;28;20198;-68
2022/04/26 07:08:49;;;;;;;93.10;39.17;;;9.00;99.90;;;;;;5099639;28;20263;-67
2022/04/26 07:11:15;;;;;;;88.60;37.50;;;9.10;99.90;;;;;;5112223;28;20199;-67
2022/04/26 07:13:41;;;;;;;92.03;40.70;;;9.00;99.90;;;;;;5105911;28;20216;-67
2022/04/26 07:16:07;;;;;;;96.17;38.33;;;9.00;99.90;;;;;;5091316;28;20221;-67
2022/04/26 07:18:34;;;;;;;91.67;38.20;;;9.10;99.90;;;;;;5094418;28;20177;-68
2022/04/26 07:20:59;;;;;;;111.23;43.00;;;9.20;99.90;;;;;;5111822;28;20692;-67
2022/04/26 07:23:25;;;;;;;95.20;38.17;;;9.20;99.90;;;;;;5107686;28;20184;-67
2022/04/26 07:25:52;;;;;;;100.00;43.70;;;9.10;99.90;;;;;;5091186;28;20760;-67
2022/04/26 07:28:19;;;;;;;91.13;40.90;;;9.10;99.90;;;;;;5090706;28;20177;-68
2022/04/26 07:30:45;;;;;;;93.20;42.80;;;9.00;99.90;;;;;;5110304;28;20184;-68
2022/04/26 07:35:54;;;;;;;85.57;40.50;;;9.10;99.90;;;;;;5110936;28;20231;-68
2022/04/26 07:38:20;;;;;;;119.20;44.13;;;9.20;99.90;;;;;;5111062;28;20176;-68
2022/04/26 07:40:46;;;;;;;104.33;45.33;;;9.10;99.90;;;;;;5091511;28;20212;-67
2022/04/26 07:43:12;;;;;;;100.87;42.57;;;9.10;99.90;;;;;;5091294;28;20170;-67
2022/04/26 07:45:40;;;;;;;112.67;42.83;;;9.00;99.90;;;;;;5108384;28;20223;-69
2022/04/26 07:48:07;;;;;;;110.93;45.53;;;9.00;99.90;;;;;;5111422;28;20610;-67
2022/04/26 07:50:34;;;;;;;119.37;48.37;;;8.90;99.90;;;;;;5093037;28;20238;-67
2022/04/26 07:53:00;;;;;;;105.13;46.03;;;8.90;99.90;;;;;;5091513;28;20188;-69
2022/04/26 07:55:27;;;;;;;111.70;46.53;;;8.90;99.90;;;;;;5105211;28;20200;-67
2022/04/26 07:57:52;;;;;;;111.90;44.33;;;8.80;99.90;;;;;;5112128;28;20630;-68
2022/04/26 08:00:18;;;;;;;109.13;46.57;;;8.80;99.90;;;;;;5097099;28;20233;-67
2022/04/26 08:02:44;;;;;;;100.70;46.40;;;8.90;99.90;;;;;;5092547;28;20192;-68
2022/04/26 08:05:09;;;;;;;79.47;42.57;;;8.90;99.90;;;;;;5093524;28;20182;-67
2022/04/26 08:07:39;;;;;;;90.67;43.27;;;8.90;99.90;;;;;;5104668;28;20180;-69
2022/04/26 08:10:16;;;;;;;88.83;44.53;;;9.00;99.90;;;;;;5114348;28;20173;-68
2022/04/26 08:12:42;;;;;;;98.33;48.07;;;9.10;99.90;;;;;;5104331;28;20177;-68
2022/04/26 08:15:10;;;;;;;99.77;48.20;;;9.20;99.90;;;;;;5095674;28;20264;-68
2022/04/26 08:17:36;;;;;;;101.57;49.50;;;9.20;99.90;;;;;;5114037;28;20173;-67
2022/04/26 08:20:06;;;;;;;99.27;47.10;;;9.20;99.90;;;;;;5115026;28;20196;-68
2022/04/26 08:22:31;;;;;;;99.30;48.57;;;9.30;99.90;;;;;;5095088;28;20179;-68
2022/04/26 08:27:41;;;;;;;103.10;50.17;;;9.40;99.90;;;;;;5094801;28;20302;-68
2022/04/26 08:30:07;;;;;;;91.77;49.43;;;9.50;99.90;;;;;;5093624;28;20185;-68
2022/04/26 08:32:43;;;;;;;96.27;47.47;;;9.50;99.90;;;;;;5094583;28;20186;-68
2022/04/26 08:35:13;;;;;;;87.57;48.00;;;9.60;99.90;;;;;;5104788;28;20180;-68
2022/04/26 08:37:39;;;;;;;85.47;44.90;;;9.70;99.90;;;;;;5113656;28;20176;-67
2022/04/26 08:40:08;;;;;;;86.73;47.53;;;9.80;99.90;;;;;;5104220;28;20654;-68
2022/04/26 08:42:41;;;;;;;78.93;42.87;;;10.10;99.90;;;;;;5092996;28;20648;-68
2022/04/26 08:45:10;;;;;;;68.50;38.10;;;10.30;99.90;;;;;;5102304;28;20196;-67
2022/04/26 08:53:08;;;;;;;63.07;35.47;;;10.30;99.90;;;;;;5094849;28;20549;-67
2022/04/26 08:55:43;;;;;;;57.80;35.67;;;10.50;99.90;;;;;;5112899;28;20300;-67
2022/04/26 08:58:11;;;;;;;65.23;36.50;;;10.60;99.90;;;;;;5109889;28;20947;-68
2022/04/26 09:00:41;;;;;;;53.60;35.17;;;10.70;99.90;;;;;;5093835;28;20213;-67
2022/04/26 09:03:07;;;;;;;55.17;35.77;;;10.60;99.90;;;;;;5095132;28;20181;-67
2022/04/26 09:05:34;;;;;;;49.57;33.67;;;10.60;99.90;;;;;;5118058;27;20192;-67
2022/04/26 09:08:18;;;;;;;50.57;34.13;;;10.50;99.90;;;;;;5145212;27;20172;-67
2022/04/26 09:10:47;;;;;;;49.13;33.00;;;10.40;99.90;;;;;;5150109;27;20275;-68
2022/04/26 09:13:15;;;;;;;50.90;33.17;;;10.20;99.90;;;;;;5135805;28;20256;-69
2022/04/26 09:15:52;;;;;;;47.27;30.60;;;10.20;99.90;;;;;;5131784;28;20204;-68
2022/04/26 09:18:29;;;;;;;42.60;30.10;;;10.20;99.90;;;;;;5106475;28;20642;-67
2022/04/26 09:20:57;;;;;;;47.00;32.03;;;10.40;99.90;;;;;;5097679;28;20196;-68
2022/04/26 09:23:24;;;;;;;46.10;31.23;;;10.40;99.90;;;;;;5113429;28;20184;-66
2022/04/26 09:26:10;;;;;;;43.33;31.87;;;10.60;99.90;;;;;;5112414;28;20280;-66
2022/04/26 09:28:38;;;;;;;44.53;32.00;;;10.60;99.90;;;;;;5094577;28;20201;-68
2022/04/26 09:31:18;;;;;;;44.27;34.33;;;10.60;99.90;;;;;;5107635;28;20187;-67
2022/04/26 09:33:47;;;;;;;47.67;32.93;;;10.70;99.90;;;;;;5113583;28;20181;-68
2022/04/26 09:36:14;;;;;;;45.23;34.73;;;10.70;99.90;;;;;;5099130;28;20201;-68
2022/04/26 09:38:48;;;;;;;43.73;31.07;;;10.70;99.90;;;;;;5093711;28;20231;-67
2022/04/26 09:41:15;;;;;;;46.33;31.77;;;10.70;99.90;;;;;;5106639;28;20319;-68
2022/04/26 09:43:41;;;;;;;44.77;30.90;;;11.00;99.90;;;;;;5113209;28;20168;-67
2022/04/26 09:46:08;;;;;;;45.37;34.10;;;11.10;99.90;;;;;;5100942;28;20201;-68
2022/04/26 09:48:36;;;;;;;51.73;38.27;;;11.20;99.90;;;;;;5091627;28;20173;-67
2022/04/26 09:51:06;;;;;;;60.10;42.87;;;11.40;99.90;;;;;;5103834;28;20252;-67
2022/04/26 09:53:35;;;;;;;65.17;43.67;;;11.40;99.90;;;;;;5112773;28;20218;-68
2022/04/26 09:56:03;;;;;;;65.83;43.37;;;11.30;99.90;;;;;;5092845;28;20664;-67
2022/04/26 09:58:30;;;;;;;63.97;44.33;;;11.30;99.90;;;;;;5092969;28;20264;-67
2022/04/26 10:00:57;;;;;;;65.77;44.07;;;11.20;99.90;;;;;;5111993;28;20622;-67
2022/04/26 10:03:29;;;;;;;55.73;41.23;;;11.20;99.90;;;;;;5113854;28;20169;-67
2022/04/26 10:06:07;;;;;;;65.87;46.53;;;11.30;99.90;;;;;;5093353;28;20556;-67
2022/04/26 10:08:35;;;;;;;60.30;42.10;;;11.40;99.90;;;;;;5093305;28;20215;-68
2022/04/26 10:11:04;;;;;;;39.03;31.20;;;11.50;99.90;;;;;;5093205;28;20185;-67
2022/04/26 10:13:32;;;;;;;43.77;30.23;;;11.50;99.90;;;;;;5091467;28;20204;-68
2022/04/26 10:16:10;;;;;;;42.67;30.73;;;11.50;99.90;;;;;;5096607;28;20784;-67
2022/04/26 10:18:44;;;;;;;39.43;29.90;;;11.50;99.90;;;;;;5092657;28;20216;-67
2022/04/26 10:21:11;;;;;;;34.57;28.57;;;11.60;99.90;;;;;;5093134;28;20298;-66
2022/04/26 10:23:52;;;;;;;34.20;28.63;;;11.60;99.90;;;;;;5110230;28;20173;-67
2022/04/26 10:26:23;;;;;;;39.83;28.77;;;11.70;99.90;;;;;;5109060;28;20193;-67
2022/04/26 10:29:00;;;;;;;38.90;29.47;;;11.80;99.90;;;;;;5112153;28;20693;-68
2022/04/26 10:31:40;;;;;;;33.80;26.97;;;11.90;99.90;;;;;;5111239;28;20180;-67
2022/04/26 10:34:31;;;;;;;33.37;26.23;;;12.00;99.90;;;;;;5111538;28;20191;-68
2022/04/26 10:37:00;;;;;;;29.40;26.20;;;12.10;99.90;;;;;;5111905;28;20200;-68
2022/04/26 10:39:30;;;;;;;29.47;22.90;;;12.30;99.90;;;;;;5111802;28;20173;-67
2022/04/26 10:41:56;;;;;;;32.13;24.00;;;12.40;99.90;;;;;;5111442;28;20208;-68
2022/04/26 10:44:30;;;;;;;29.97;25.10;;;12.70;99.90;;;;;;5111572;28;20552;-67
2022/04/26 10:47:02;;;;;;;32.07;26.63;;;12.90;99.90;;;;;;5111587;28;20183;-67
2022/04/26 10:49:39;;;;;;;30.70;24.47;;;13.20;99.90;;;;;;5090447;28;20541;-67
2022/04/26 10:52:23;;;;;;;27.67;23.17;;;13.40;99.90;;;;;;5093364;28;20173;-68
2022/04/26 10:54:55;;;;;;;24.83;22.23;;;13.30;99.90;;;;;;5111953;28;20180;-67
2022/04/26 10:57:22;;;;;;;27.60;22.40;;;13.30;99.90;;;;;;5110384;28;20192;-67
2022/04/26 10:59:59;;;;;;;26.10;23.33;;;13.30;99.90;;;;;;5112398;28;20631;-67
2022/04/26 11:02:27;;;;;;;26.73;23.83;;;13.30;99.90;;;;;;5106819;28;20228;-67
2022/04/26 11:05:01;;;;;;;27.57;23.87;;;13.60;99.90;;;;;;5091477;28;20544;-67
2022/04/26 11:07:29;;;;;;;24.37;20.43;;;13.80;99.90;;;;;;5096005;28;20196;-67
2022/04/26 11:09:56;;;;;;;23.67;21.13;;;14.10;99.90;;;;;;5111061;28;20254;-67
2022/04/26 11:12:27;;;;;;;24.97;21.57;;;14.20;99.90;;;;;;5108207;28;20213;-67
2022/04/26 11:14:57;;;;;;;23.97;21.57;;;14.40;99.90;;;;;;5090411;28;20188;-67
2022/04/26 11:17:24;;;;;;;31.53;23.13;;;14.40;99.90;;;;;;5093421;28;20563;-67
2022/04/26 11:19:53;;;;;;;26.90;22.17;;;14.50;99.90;;;;;;5111803;28;20184;-67
2022/04/26 11:22:19;;;;;;;25.57;22.40;;;14.90;99.90;;;;;;5109908;28;20204;-67
2022/04/26 11:30:35;;;;;;;23.10;20.70;;;15.70;99.90;;;;;;5090925;28;20214;-67
2022/04/26 11:33:03;;;;;;;23.53;21.07;;;16.00;99.90;;;;;;5097633;28;20177;-67
2022/04/26 11:35:29;;;;;;;28.33;25.53;;;16.30;99.90;;;;;;5111370;28;20376;-66
2022/04/26 11:38:04;;;;;;;25.20;22.70;;;16.70;99.90;;;;;;5109036;28;20706;-67
2022/04/26 11:40:33;;;;;;;25.03;22.53;;;17.20;99.90;;;;;;5096177;28;20210;-67
2022/04/26 11:43:06;;;;;;;24.33;21.83;;;17.70;99.90;;;;;;5095855;28;20670;-67
2022/04/26 11:45:34;;;;;;;28.53;25.47;;;18.00;99.90;;;;;;5115290;28;20215;-66
2022/04/26 11:48:00;;;;;;;28.47;25.57;;;17.90;99.90;;;;;;5114912;28;20183;-66
2022/04/26 11:50:30;;;;;;;26.27;23.57;;;18.00;99.90;;;;;;5094945;28;20589;-67
2022/04/26 11:53:04;;;;;;;28.30;25.50;;;17.90;99.90;;;;;;5111309;28;20173;-66
2022/04/26 11:55:34;;;;;;;28.93;26.13;;;17.50;99.90;;;;;;5113795;28;20578;-66
2022/04/26 11:58:13;;;;;;;28.03;25.33;;;17.40;99.90;;;;;;5099285;28;20635;-66
2022/04/26 12:01:18;;;;;;;30.70;27.63;;;17.50;99.90;;;;;;5094802;28;20209;-66
2022/04/26 12:03:51;;;;;;;33.47;29.87;;;17.90;99.90;;;;;;5012692;28;20184;-66
2022/04/26 12:06:19;;;;;;;35.00;31.10;;;17.90;99.90;;;;;;5012303;28;20203;-67
2022/04/26 12:08:53;;;;;;;35.50;31.63;;;17.80;99.90;;;;;;5056927;28;20185;-66
2022/04/26 12:11:22;;;;;;;32.97;29.47;;;17.60;99.90;;;;;;5093339;28;20286;-66
2022/04/26 12:13:58;;;;;;;34.00;30.70;;;17.50;99.90;;;;;;5094830;28;20188;-65
2022/04/26 12:16:23;;;;;;;32.63;29.43;;;17.60;99.90;;;;;;5093853;28;20197;-67
2022/04/26 12:18:57;;;;;;;33.93;30.43;;;17.70;99.90;;;;;;5115157;28;20528;-66
2022/04/26 12:21:26;;;;;;;32.50;29.03;;;17.80;99.90;;;;;;5115124;28;20296;-66
2022/04/26 12:24:17;;;;;;;29.90;26.63;;;18.00;99.90;;;;;;5094671;28;20219;-66
2022/04/26 12:27:03;;;;;;;30.13;26.90;;;17.80;99.90;;;;;;5095689;28;20568;-66
2022/04/26 12:29:30;;;;;;;33.87;30.17;;;17.30;99.90;;;;;;5113009;28;20320;-66
2022/04/26 12:31:57;;;;;;;31.10;27.80;;;16.80;99.90;;;;;;5114767;28;20177;-65
2022/04/26 12:34:26;;;;;;;31.30;28.10;;;16.70;99.90;;;;;;5110921;28;20264;-67
2022/04/26 12:36:59;;;;;;;27.67;24.67;;;17.10;99.90;;;;;;5094295;28;20205;-66
2022/04/26 12:39:48;;;;;;;27.77;24.50;;;17.50;99.90;;;;;;5095814;28;20177;-65
2022/04/26 12:42:17;;;;;;;26.73;24.13;;;17.60;99.90;;;;;;5114644;28;20211;-66
2022/04/26 12:44:53;;;;;;;27.37;22.70;;;17.70;99.90;;;;;;5109472;28;20186;-67
2022/04/26 12:50:28;;;;;;;28.23;23.47;;;17.90;99.90;;;;;;5111958;28;20187;-66
2022/04/26 12:53:22;;;;;;;25.77;23.17;;;18.00;99.90;;;;;;5114571;28;20248;-66
2022/04/26 12:55:48;;;;;;;22.73;20.53;;;17.90;99.90;;;;;;5086524;28;20214;-65
2022/04/26 12:58:18;;;;;;;23.50;21.10;;;18.10;99.90;;;;;;5109016;28;20189;-67
2022/04/26 13:00:47;;;;;;;22.67;20.30;;;18.50;99.90;;;;;;5112918;28;20204;-66
2022/04/26 13:03:18;;;;;;;21.03;18.80;;;19.20;99.90;;;;;;5099958;28;20181;-65
2022/04/26 13:05:46;;;;;;;22.13;19.53;;;19.70;99.90;;;;;;5093820;28;20194;-66
2022/04/26 13:08:14;;;;;;;22.67;20.27;;;20.20;99.90;;;;;;5103236;28;20220;-67
2022/04/26 13:10:40;;;;;;;25.87;23.37;;;19.70;99.90;;;;;;5131810;27;20176;-66
2022/04/26 13:13:08;;;;;;;25.10;22.63;;;19.20;99.90;;;;;;5134682;27;20583;-65
2022/04/26 13:15:34;;;;;;;30.00;27.60;;;18.80;99.90;;;;;;5121650;27;20213;-66
2022/04/26 13:18:00;;;;;;;22.33;19.97;;;18.70;99.90;;;;;;5114214;28;20173;-65
2022/04/26 13:20:26;;;;;;;20.70;18.60;;;18.80;99.90;;;;;;5104032;28;20196;-68
2022/04/26 13:22:52;;;;;;;19.43;17.53;;;18.80;99.90;;;;;;5093565;28;20166;-66
2022/04/26 13:25:18;;;;;;;17.97;16.07;;;18.70;99.90;;;;;;5100607;28;20322;-67
2022/04/26 13:27:46;;;;;;;19.40;17.43;;;18.80;99.90;;;;;;5113874;28;20638;-67
2022/04/26 13:30:12;;;;;;;18.37;16.47;;;18.80;99.90;;;;;;5095552;28;20279;-66
2022/04/26 13:32:38;;;;;;;17.90;16.03;;;18.70;99.90;;;;;;5092002;28;20197;-67
2022/04/26 13:35:05;;;;;;;19.53;15.97;;;18.90;99.90;;;;;;5109178;28;20184;-66
2022/04/26 13:37:31;;;;;;;17.37;15.33;;;19.10;99.90;;;;;;5112215;28;20676;-66
2022/04/26 13:39:58;;;;;;;17.73;14.80;;;19.40;99.90;;;;;;5098887;28;20251;-67
2022/04/26 13:42:25;;;;;;;17.33;14.30;;;19.60;99.90;;;;;;5092937;28;20200;-67
2022/04/26 13:44:54;;;;;;;17.63;16.00;;;19.60;99.90;;;;;;5105734;28;20622;-66
2022/04/26 13:47:20;;;;;;;18.43;16.07;;;18.90;99.90;;;;;;5113239;28;20240;-67
2022/04/26 13:49:46;;;;;;;23.47;21.50;;;18.10;99.90;;;;;;5100007;28;20177;-66
2022/04/26 13:52:13;;;;;;;25.07;23.17;;;17.70;99.90;;;;;;5092873;28;20182;-66
2022/04/26 13:54:42;;;;;;;20.13;18.10;;;17.40;99.90;;;;;;5101521;28;20546;-66
2022/04/26 13:57:08;;;;;;;18.30;16.50;;;16.80;99.90;;;;;;5113123;28;20646;-66
2022/04/26 13:59:34;;;;;;;19.53;17.63;;;16.90;99.90;;;;;;5101787;28;20239;-67
2022/04/26 14:02:00;;;;;;;19.37;17.40;;;17.10;99.90;;;;;;5092190;28;20540;-66
2022/04/26 14:04:26;;;;;;;19.60;17.83;;;17.30;99.90;;;;;;5096105;28;20184;-66
2022/04/26 14:06:51;;;;;;;19.30;17.47;;;17.50;99.90;;;;;;5092417;28;20239;-67
2022/04/26 14:09:17;;;;;;;19.40;17.47;;;17.50;99.90;;;;;;5097806;28;20173;-66
2022/04/26 14:11:45;;;;;;;17.73;16.07;;;17.60;99.90;;;;;;5112969;28;20189;-66
2022/04/26 14:22:30;;;;;;;14.90;13.43;;;19.10;99.90;;;;;;5112437;28;20685;-66
2022/04/26 14:24:56;;;;;;;17.37;15.87;;;18.80;99.90;;;;;;5101605;28;20185;-66
2022/04/26 14:27:21;;;;;;;31.07;28.97;;;18.10;99.90;;;;;;5092033;28;20699;-66
2022/04/26 14:29:47;;;;;;;21.63;19.73;;;17.70;99.90;;;;;;5098271;28;20616;-67
2022/04/26 14:32:13;;;;;;;18.20;16.33;;;17.70;99.90;;;;;;5112424;28;20165;-67
2022/04/26 14:34:39;;;;;;;18.77;17.07;;;17.70;99.90;;;;;;5090885;28;20185;-67
2022/04/26 14:37:05;;;;;;;15.87;14.20;;;17.50;99.90;;;;;;5092080;28;20197;-67
2022/04/26 14:39:31;;;;;;;31.97;15.30;;;17.20;99.90;;;;;;5110050;28;20188;-67
2022/04/26 14:41:57;;;;;;;16.17;14.63;;;17.00;99.90;;;;;;5112714;28;20208;-67
2022/04/26 14:44:22;;;;;;;14.20;12.87;;;16.80;99.90;;;;;;5094320;28;20676;-67
2022/04/26 14:46:48;;;;;;;16.93;15.07;;;16.60;99.90;;;;;;5091531;28;20202;-67
2022/04/26 14:49:13;;;;;;;17.37;13.53;;;16.20;99.90;;;;;;5103998;28;20177;-67
2022/04/26 14:51:39;;;;;;;15.43;12.57;;;15.90;99.90;;;;;;5112224;28;20630;-67
2022/04/26 14:54:04;;;;;;;13.90;11.77;;;15.80;99.90;;;;;;5099180;28;20216;-67
2022/04/26 14:56:30;;;;;;;14.50;12.17;;;15.80;99.90;;;;;;5095582;28;20211;-66
2022/04/26 14:58:57;;;;;;;14.83;11.93;;;16.10;99.90;;;;;;5112062;28;20184;-65
2022/04/26 15:01:30;;;;;;;12.33;11.13;;;16.60;99.90;;;;;;5102687;28;20235;-66
2022/04/26 15:03:56;;;;;;;11.93;10.70;;;17.10;99.90;;;;;;5091945;28;20222;-65
2022/04/26 15:06:22;;;;;;;13.47;12.17;;;17.60;99.90;;;;;;5098903;28;20197;-66
2022/04/26 15:11:31;;;;;;;14.00;12.70;;;18.10;99.90;;;;;;5102391;28;20557;-66
2022/04/26 15:16:46;;;;;;;10.47;9.43;;;18.80;99.90;;;;;;5100536;28;20257;-66
2022/04/26 15:19:13;;;;;;;11.97;10.93;;;19.00;99.90;;;;;;5112103;28;20527;-66
2022/04/26 15:21:42;;;;;;;11.03;10.00;;;19.10;99.90;;;;;;5102561;28;20208;-65
2022/04/26 15:24:08;;;;;;;13.60;10.97;;;18.80;99.90;;;;;;5090338;28;20189;-66
2022/04/26 15:26:34;;;;;;;16.57;14.67;;;18.40;99.90;;;;;;5098332;28;20204;-67
2022/04/26 15:29:00;;;;;;;11.47;10.43;;;17.70;99.90;;;;;;5106396;28;20174;-65
2022/04/26 15:31:26;;;;;;;10.53;9.63;;;16.10;99.90;;;;;;5089850;28;20177;-67
2022/04/26 15:33:52;;;;;;;10.63;9.77;;;15.00;99.90;;;;;;5093837;28;20227;-65
2022/04/26 15:36:19;;;;;;;12.37;11.37;;;14.30;99.90;;;;;;5111240;28;20284;-66
2022/04/26 15:38:45;;;;;;;16.13;12.40;;;13.70;99.90;;;;;;5109549;28;20511;-67
2022/04/26 15:41:12;;;;;;;28.90;17.07;;;13.10;99.90;;;;;;5091355;28;20229;-67
2022/04/26 15:43:39;;;;;;;14.93;13.47;;;12.30;99.90;;;;;;5091513;28;20248;-66
2022/04/26 15:46:08;;;;;;;24.83;15.47;;;11.40;99.90;;;;;;5111469;28;20280;-66
2022/04/26 15:48:37;;;;;;;15.90;14.50;;;10.80;99.90;;;;;;5110823;28;20173;-66
2022/04/26 15:51:03;;;;;;;16.37;14.80;;;10.50;99.90;;;;;;5091655;28;20181;-66
2022/04/26 15:53:29;;;;;;;19.17;15.93;;;10.40;99.90;;;;;;5089846;28;20190;-69
2022/04/26 15:55:55;;;;;;;17.30;15.50;;;10.30;99.90;;;;;;5105515;28;20201;-66
2022/04/26 15:58:21;;;;;;;20.20;18.20;;;10.40;99.90;;;;;;5109998;28;20177;-67
2022/04/26 16:00:46;;;;;;;21.30;19.20;;;10.50;99.90;;;;;;5093149;28;20201;-66
2022/04/26 16:03:12;;;;;;;20.87;18.67;;;10.60;99.90;;;;;;5091033;28;20208;-66
2022/04/26 16:05:40;;;;;;;21.10;19.07;;;10.70;99.90;;;;;;5104059;28;20203;-66
2022/04/26 16:08:06;;;;;;;23.97;19.67;;;10.70;99.90;;;;;;5098261;28;20181;-66
2022/04/26 16:21:30;;;;;;;27.33;24.57;;;11.10;99.90;;;;;;5090678;28;20358;-66
2022/04/26 16:23:56;;;;;;;30.53;25.30;;;11.10;99.90;;;;;;5110196;28;20176;-66
2022/04/26 16:26:23;;;;;;;32.77;26.57;;;11.10;99.90;;;;;;5114600;28;20218;-67
2022/04/26 16:28:51;;;;;;;32.80;26.97;;;11.10;99.90;;;;;;5097904;28;20616;-69
2022/04/26 16:31:19;;;;;;;29.27;24.07;;;11.20;99.90;;;;;;5093128;28;20169;-67
2022/04/26 16:33:45;;;;;;;32.30;28.83;;;11.00;99.90;;;;;;5108535;28;20184;-66
2022/04/26 16:36:11;;;;;;;33.73;30.17;;;11.00;99.90;;;;;;5114492;28;20231;-69
2022/04/26 16:38:37;;;;;;;33.30;27.97;;;10.90;99.90;;;;;;5100549;28;20177;-66
2022/04/26 16:41:06;;;;;;;30.90;27.27;;;10.90;99.90;;;;;;5094370;28;20622;-66
2022/04/26 16:43:36;;;;;;;33.37;27.87;;;10.90;99.90;;;;;;5107062;28;20695;-67
2022/04/26 16:46:02;;;;;;;36.57;30.70;;;10.90;99.90;;;;;;5114444;28;20185;-66
2022/04/26 16:48:28;;;;;;;34.00;30.00;;;11.10;99.90;;;;;;5102656;28;20400;-66
2022/04/26 16:50:54;;;;;;;33.27;29.13;;;11.30;99.90;;;;;;5102100;28;20215;-66
2022/04/26 16:53:20;;;;;;;36.13;29.40;;;11.30;99.90;;;;;;5114409;28;20205;-66
2022/04/26 16:55:46;;;;;;;32.20;28.70;;;11.30;99.90;;;;;;5101491;28;20197;-68
2022/04/26 16:58:13;;;;;;;34.23;27.30;;;11.40;99.90;;;;;;5094050;28;20169;-66